Accueil
METAR-TAF:

METAR-TAF

Aéroports :

Base aérienne

Niederstetten, Allemagne

latitude: 49-24N, longitude: 009-58E, altitude: 468 m

Observation

Le bulletin a été fait il y a 22 minutes, à 02:20 UTC
Vent 6 kt de est/sud-est
Température 10°C
Humidité 53%
Pression 1027 hPa
Visibilité 10 km ou plus

METAR: ETHN 080220Z 11006KT 9999 10/01 Q1027 BLU+

Heure: 04:42 (02:42 UTC)

Prévision

Le bulletin a été fait il y a 12 heures et 3 minutes, à 14:39 UTC
Prévision valable du 07 à 14 UTC au 07 à 23 UTC
Vent 5 kt de est/nord-est
Visibilité 10 km ou plus
Quelques nuages à une hauteur de 4000 ft

TAF: ETHN 071439Z 0714/0723 07005KT 9999 NSW FEW040 CANCEL 1500Z

Observations et prévisions météorologiques de plus de 4000 aéroports (messages METAR et TAF).

Les stations disponibles sont représentées par des disques jaunes et rouges sur la carte.

Passer la souris dessus pour voir le nom de la station.

Cliquer dessus pour voir les observations et prévisions météorologiques.

Pour changer de carte: cliquez sur les boutons verts avec une croix noire pour zoomer, sur le bouton vert avec un tiret pour effectuer un zoom arrière, ou sur les flèches vertes pour les cartes adjacentes.


METAR-TAF: